DAAG/ALG METAR and TAF weather

Enter ICAO airport designator
Station Type Date Time Source
DAAG METAR 2021/07/29 17:30 UTC NOAA

DAAG 291730Z 06007KT 9999 FEW026 SCT200 30/23 Q1012


Station Type Date Time Source
DAAG Decoded METAR 2021/07/29 17:30 UTC NOAA

Dar-El-Beida, Algeria (DAAG) 36-43N 003-15E 25M
Jul 29, 2021 - 01:30 PM EDT / 2021.07.29 1730 UTC
Wind: from the ENE (060 degrees) at 8 MPH (7 KT):0
Visibility: greater than 7 mile(s):0
Sky conditions: partly cloudy
Temperature: 86 F (30 C)
Heat index: 93.4 F (34.1 C):1
Dew Point: 73 F (23 C)
Relative Humidity: 66%
Pressure (altimeter): 29.88 in. Hg (1012 hPa)
ob: DAAG 291730Z 06007KT 9999 FEW026 SCT200 30/23 Q1012
cycle: 17

Station Type Date Time Source
DAAG TAF 2021/07/29 18:33 UTC NOAA

TAF TAF DAAG 291700Z 2918/3018 02010KT 9999 FEW010 SCT040
BECMG 2919/2921 VRB02KT PROB30
TEMPO 3000/3006 4000 BR BKN015
BECMG 3009/3012 04010KT

Example: see airport list